Time;durP1;ratioP1;P1;durP2;ratioP2;P2;SDS_P1;SDS_P2;PMS_P1;PMS_P2;Temp;Humidity;BMP_temperature;BMP_pressure;BME280_temperature;BME280_humidity;BME280_pressure;Samples;Min_cycle;Max_cycle;Signal;HPM_P1;HPM_P2
2024/02/19 00:00:54;;;;;;;4.50;2.40;;;;;;;4.03;46.92;101488.07;108190;1252;59549;-65
2024/02/19 00:03:23;;;;;;;7.40;2.90;;;;;;;4.02;46.89;101488.24;108142;1252;73362;-65
2024/02/19 00:05:51;;;;;;;9.00;2.70;;;;;;;4.12;46.74;101492.16;108133;1253;69876;-66
2024/02/19 00:08:18;;;;;;;7.60;3.10;;;;;;;4.02;46.68;101490.84;108151;1253;71470;-66
2024/02/19 00:10:46;;;;;;;8.00;3.10;;;;;;;3.83;46.95;101491.13;108092;1253;61919;-66
2024/02/19 00:15:50;;;;;;;5.00;3.10;;;;;;;3.29;49.20;101493.69;104975;1290;600266;-67
2024/02/19 00:18:17;;;;;;;4.50;2.70;;;;;;;4.19;46.48;101483.04;107351;1264;61689;-66
2024/02/19 00:20:45;;;;;;;7.20;3.30;;;;;;;4.34;46.19;101485.64;107351;1264;59117;-66
2024/02/19 00:23:12;;;;;;;10.60;3.80;;;;;;;4.02;46.69;101483.72;107246;1264;72272;-67
2024/02/19 00:25:40;;;;;;;7.90;3.30;;;;;;;3.84;47.19;101485.59;107298;1267;68842;-65
2024/02/19 00:28:10;;;;;;;11.00;3.70;;;;;;;3.76;47.19;101483.92;107297;1267;72561;-66
2024/02/19 00:30:39;;;;;;;8.20;4.10;;;;;;;3.79;46.98;101484.84;107475;1261;113820;-66
2024/02/19 00:33:06;;;;;;;10.30;3.60;;;;;;;3.62;47.07;101484.27;107554;1257;60052;-66
2024/02/19 00:35:34;;;;;;;25.30;6.80;;;;;;;3.68;47.21;101479.83;107577;1264;72216;-65
2024/02/19 00:38:01;;;;;;;10.10;4.40;;;;;;;3.81;46.88;101482.08;107615;1258;69992;-66
2024/02/19 00:40:29;;;;;;;9.10;3.80;;;;;;;3.84;46.84;101481.43;107665;1265;72763;-67
2024/02/19 00:42:57;;;;;;;8.50;3.50;;;;;;;3.83;46.99;101479.67;107634;1258;63531;-64
2024/02/19 00:45:24;;;;;;;7.60;3.50;;;;;;;3.68;47.19;101476.53;107689;1258;59371;-66
2024/02/19 00:47:52;;;;;;;8.50;3.60;;;;;;;3.72;47.23;101476.41;108109;1254;72071;-65
2024/02/19 00:50:19;;;;;;;8.60;3.70;;;;;;;3.62;47.45;101484.97;108041;1260;69651;-66
2024/02/19 00:52:47;;;;;;;7.00;3.30;;;;;;;3.73;47.34;101483.52;108094;1254;71404;-66
2024/02/19 00:55:14;;;;;;;10.40;4.10;;;;;;;3.59;47.40;101484.92;108115;1258;61730;-65
2024/02/19 00:57:42;;;;;;;4.80;3.10;;;;;;;3.45;47.98;101482.31;108195;1254;59487;-68
2024/02/19 01:00:10;;;;;;;7.10;3.40;;;;;;;3.52;47.60;101481.89;108106;1258;71902;-66
2024/02/19 01:02:37;;;;;;;7.00;3.70;;;;;;;3.43;47.80;101484.35;108039;1254;69395;-67
2024/02/19 01:05:05;;;;;;;9.00;4.10;;;;;;;3.40;47.81;101485.53;108030;1254;72644;-67
2024/02/19 01:07:32;;;;;;;7.80;3.90;;;;;;;3.22;48.10;101489.42;107999;1253;61661;-66
2024/02/19 01:10:00;;;;;;;8.30;3.60;;;;;;;3.06;48.37;101488.51;108057;1254;59615;-64
2024/02/19 01:12:28;;;;;;;6.50;3.20;;;;;;;2.96;49.03;101484.02;108026;1255;72162;-64
2024/02/19 01:14:56;;;;;;;5.70;3.10;;;;;;;3.19;48.62;101481.94;108066;1254;69675;-67
2024/02/19 01:17:24;;;;;;;5.60;3.30;;;;;;;3.42;48.02;101481.57;108092;1258;72383;-65
2024/02/19 01:19:52;;;;;;;5.80;3.30;;;;;;;3.25;48.23;101478.02;108069;1258;59505;-66
2024/02/19 01:22:20;;;;;;;7.40;3.70;;;;;;;3.20;48.40;101481.08;108162;1255;59639;-66
2024/02/19 01:24:48;;;;;;;6.70;3.10;;;;;;;3.30;48.32;101485.21;108108;1254;71638;-67
2024/02/19 01:27:16;;;;;;;8.20;3.70;;;;;;;3.30;48.15;101485.73;107973;1260;68837;-66
2024/02/19 01:29:43;;;;;;;6.50;2.90;;;;;;;3.37;48.36;101487.58;108109;1256;72714;-66
2024/02/19 01:32:11;;;;;;;6.00;3.50;;;;;;;3.32;48.67;101486.64;108072;1257;60465;-67
2024/02/19 01:34:40;;;;;;;6.00;3.80;;;;;;;3.28;48.83;101485.55;107987;1260;60015;-66
2024/02/19 01:37:07;;;;;;;7.70;3.40;;;;;;;3.31;48.72;101484.02;107963;1259;71939;-66
2024/02/19 01:39:35;;;;;;;5.90;4.00;;;;;;;3.43;48.46;101480.02;107915;1255;69008;-65
2024/02/19 01:42:05;;;;;;;7.70;3.50;;;;;;;3.40;48.47;101479.98;107960;1258;71315;-67
2024/02/19 01:44:32;;;;;;;11.10;3.40;;;;;;;3.31;48.60;101477.08;108030;1258;60448;-65
2024/02/19 01:47:00;;;;;;;6.30;3.70;;;;;;;3.27;48.67;101477.19;108029;1254;59555;-64
2024/02/19 01:49:27;;;;;;;7.80;3.30;;;;;;;3.24;48.77;101475.58;107977;1254;73062;-66
2024/02/19 01:51:54;;;;;;;6.20;3.30;;;;;;;3.15;48.93;101471.64;107907;1254;70128;-65
2024/02/19 01:54:22;;;;;;;9.30;3.40;;;;;;;3.21;48.64;101473.12;107991;1257;72495;-65
2024/02/19 01:56:51;;;;;;;8.50;3.50;;;;;;;3.24;48.58;101470.20;107932;1255;60404;-66
2024/02/19 01:59:21;;;;;;;7.10;3.20;;;;;;;3.21;48.64;101469.80;108011;1255;60149;-66
2024/02/19 02:01:48;;;;;;;5.60;3.70;;;;;;;3.30;48.15;101476.55;108022;1254;73085;-66
2024/02/19 02:04:16;;;;;;;9.70;3.30;;;;;;;3.31;48.25;101476.21;107926;1254;70454;-66
2024/02/19 02:06:44;;;;;;;4.20;3.00;;;;;;;3.33;48.10;101468.06;107925;1257;72650;-67
2024/02/19 02:09:13;;;;;;;6.30;3.80;;;;;;;3.34;48.36;101467.05;107885;1257;61001;-66
2024/02/19 02:11:40;;;;;;;7.00;3.40;;;;;;;3.31;48.05;101463.36;108007;1260;59539;-66
2024/02/19 02:14:08;;;;;;;8.20;3.60;;;;;;;3.20;48.35;101465.29;108072;1254;72186;-66
2024/02/19 02:16:35;;;;;;;7.80;3.90;;;;;;;3.14;48.41;101459.48;108107;1254;69029;-67
2024/02/19 02:19:03;;;;;;;8.00;4.30;;;;;;;3.11;48.51;101458.56;107917;1260;72438;-67
2024/02/19 02:21:31;;;;;;;7.30;4.80;;;;;;;3.05;48.47;101457.44;107880;1260;61781;-67
2024/02/19 02:23:58;;;;;;;10.30;5.00;;;;;;;3.03;48.50;101454.96;107972;1254;60108;-67
2024/02/19 02:26:26;;;;;;;9.00;4.60;;;;;;;2.94;48.72;101459.00;107988;1260;73095;-68
2024/02/19 02:28:53;;;;;;;9.10;4.40;;;;;;;2.89;49.08;101452.67;107944;1254;69090;-67
2024/02/19 02:31:21;;;;;;;6.70;4.50;;;;;;;2.93;48.94;101453.61;107871;1259;72671;-67
2024/02/19 02:33:49;;;;;;;6.50;3.90;;;;;;;2.93;49.02;101454.13;107964;1254;63327;-67
2024/02/19 02:36:16;;;;;;;6.30;3.90;;;;;;;2.91;48.84;101454.45;108059;1254;60976;-67
2024/02/19 02:38:44;;;;;;;7.00;3.60;;;;;;;2.89;48.92;101451.47;108050;1260;71744;-67
2024/02/19 02:41:11;;;;;;;6.10;3.50;;;;;;;2.80;49.26;101456.52;108029;1255;70342;-66
2024/02/19 02:43:39;;;;;;;8.40;4.00;;;;;;;2.89;48.98;101460.84;108037;1259;72680;-67
2024/02/19 02:46:07;;;;;;;4.40;3.30;;;;;;;2.87;49.38;101455.08;108039;1257;60428;-67
2024/02/19 02:48:34;;;;;;;4.60;3.60;;;;;;;2.88;49.53;101455.97;108153;1253;60923;-65
2024/02/19 02:51:02;;;;;;;7.50;3.50;;;;;;;2.88;49.45;101459.61;108113;1260;71741;-66
2024/02/19 02:53:30;;;;;;;7.30;3.90;;;;;;;2.30;50.60;101462.41;108115;1253;69973;-64
2024/02/19 02:55:57;;;;;;;8.00;4.00;;;;;;;2.20;51.46;101463.47;108072;1257;73108;-66
2024/02/19 02:58:25;;;;;;;8.70;4.80;;;;;;;2.49;50.62;101463.65;108165;1254;61831;-67
2024/02/19 03:00:52;;;;;;;6.90;4.70;;;;;;;2.93;49.86;101451.70;108116;1255;60032;-68
2024/02/19 03:03:20;;;;;;;9.00;4.40;;;;;;;2.86;49.81;101445.17;108115;1254;72771;-66
2024/02/19 03:05:47;;;;;;;7.60;3.80;;;;;;;2.90;49.79;101445.41;108144;1254;68673;-67
2024/02/19 03:08:15;;;;;;;8.90;4.50;;;;;;;2.82;50.07;101448.06;108091;1257;72646;-67
2024/02/19 03:10:43;;;;;;;8.20;3.90;;;;;;;2.45;50.59;101451.24;108050;1254;61583;-67
2024/02/19 03:13:12;;;;;;;7.20;3.60;;;;;;;2.22;51.47;101454.15;108120;1255;60988;-65
2024/02/19 03:15:40;;;;;;;5.20;3.50;;;;;;;2.38;51.27;101449.23;108236;1254;73522;-65
2024/02/19 03:18:08;;;;;;;6.80;4.20;;;;;;;2.42;50.99;101444.27;108042;1254;68498;-66
2024/02/19 03:20:38;;;;;;;5.90;4.30;;;;;;;2.23;51.40;101454.84;108081;1255;72733;-66
2024/02/19 03:23:06;;;;;;;7.60;4.30;;;;;;;2.03;51.86;101455.02;108035;1256;60384;-66
2024/02/19 03:25:35;;;;;;;5.70;3.90;;;;;;;2.08;51.93;101460.65;108071;1254;60075;-68
2024/02/19 03:28:03;;;;;;;8.10;4.10;;;;;;;2.22;51.71;101456.23;108100;1254;72951;-67
2024/02/19 03:30:31;;;;;;;9.70;4.20;;;;;;;2.18;51.53;101460.65;108151;1254;69424;-67
2024/02/19 03:33:00;;;;;;;5.30;3.40;;;;;;;2.42;51.34;101458.15;108011;1254;72699;-67
2024/02/19 03:35:28;;;;;;;6.00;3.50;;;;;;;2.62;50.73;101455.55;107870;1254;60670;-66
2024/02/19 03:37:55;;;;;;;6.60;3.30;;;;;;;2.72;50.37;101457.78;108039;1254;60026;-68
2024/02/19 03:40:23;;;;;;;7.90;4.00;;;;;;;2.47;50.89;101456.33;107914;1259;73004;-67
2024/02/19 03:42:51;;;;;;;5.80;3.50;;;;;;;2.34;51.32;101459.02;107929;1254;70128;-66
2024/02/19 03:45:18;;;;;;;7.10;3.70;;;;;;;2.61;50.80;101460.73;107990;1254;72709;-67
2024/02/19 03:47:46;;;;;;;5.20;3.80;;;;;;;2.64;50.61;101464.59;108028;1257;59468;-67
2024/02/19 03:50:14;;;;;;;8.60;4.10;;;;;;;2.66;50.70;101467.40;107997;1254;60202;-67
2024/02/19 03:52:41;;;;;;;8.50;3.80;;;;;;;2.60;50.64;101467.65;107927;1260;72976;-66
2024/02/19 03:55:09;;;;;;;6.60;4.00;;;;;;;2.55;50.99;101466.35;107919;1254;69624;-66
2024/02/19 03:57:37;;;;;;;8.30;3.50;;;;;;;2.64;50.86;101465.63;108060;1254;72673;-68
2024/02/19 04:00:07;;;;;;;8.20;4.10;;;;;;;2.65;50.83;101462.36;107910;1255;61711;-66
2024/02/19 04:02:34;;;;;;;7.70;4.40;;;;;;;2.61;51.02;101465.40;107934;1255;59462;-66
2024/02/19 04:05:02;;;;;;;6.40;4.20;;;;;;;2.20;51.70;101467.63;108087;1254;73295;-66
2024/02/19 04:07:29;;;;;;;10.60;4.00;;;;;;;2.42;51.46;101461.59;108015;1255;68851;-67
2024/02/19 04:09:57;;;;;;;8.50;3.90;;;;;;;2.52;51.08;101455.37;107905;1257;71391;-66
2024/02/19 04:12:24;;;;;;;7.40;4.40;;;;;;;2.24;51.55;101459.02;107896;1255;60454;-67
2024/02/19 04:14:52;;;;;;;11.50;4.70;;;;;;;2.39;51.25;101455.31;107951;1254;60325;-65
2024/02/19 04:17:19;;;;;;;10.20;4.60;;;;;;;2.40;51.28;101460.52;107949;1254;72869;-66
2024/02/19 04:19:47;;;;;;;10.40;4.90;;;;;;;2.48;50.97;101454.77;107915;1254;68324;-66
2024/02/19 04:22:14;;;;;;;6.80;4.20;;;;;;;2.44;50.78;101456.79;108131;1254;70639;-66
2024/02/19 04:24:42;;;;;;;6.70;4.30;;;;;;;2.38;50.82;101458.42;108145;1254;60447;-67
2024/02/19 04:27:10;;;;;;;7.80;4.80;;;;;;;1.97;51.62;101464.23;108130;1253;60290;-67
2024/02/19 04:29:37;;;;;;;6.40;3.60;;;;;;;1.98;51.58;101468.24;108152;1252;72589;-66
2024/02/19 04:32:05;;;;;;;7.10;3.80;;;;;;;1.93;51.54;101466.24;108123;1253;69327;-66
2024/02/19 04:34:33;;;;;;;4.90;3.50;;;;;;;2.16;50.98;101457.34;108175;1254;70968;-66
2024/02/19 04:37:07;;;;;;;9.20;4.30;;;;;;;2.24;50.69;101455.21;108258;1251;63911;-65
2024/02/19 04:39:35;;;;;;;6.80;3.70;;;;;;;2.17;50.58;101455.94;108308;1251;59993;-66
2024/02/19 04:42:03;;;;;;;8.30;4.10;;;;;;;1.88;51.10;101456.96;108235;1251;73915;-68
2024/02/19 04:44:31;;;;;;;9.50;4.30;;;;;;;1.89;51.06;101456.64;108225;1251;70738;-66
2024/02/19 04:46:58;;;;;;;8.50;3.70;;;;;;;2.02;50.52;101456.02;108199;1251;71370;-65
2024/02/19 04:49:26;;;;;;;6.90;3.60;;;;;;;2.05;50.54;101457.64;108251;1254;61853;-68
2024/02/19 04:51:54;;;;;;;5.50;3.80;;;;;;;1.80;50.80;101463.20;108262;1251;60402;-67
2024/02/19 04:54:22;;;;;;;8.60;4.30;;;;;;;1.84;50.91;101466.95;108203;1251;72787;-66
2024/02/19 04:56:49;;;;;;;7.50;3.80;;;;;;;1.57;51.56;101463.59;108182;1251;70789;-67
2024/02/19 04:59:17;;;;;;;10.10;4.20;;;;;;;1.51;51.91;101460.36;108216;1254;71400;-66
2024/02/19 05:01:45;;;;;;;6.00;3.60;;;;;;;1.24;51.93;101464.61;108249;1254;60398;-65
2024/02/19 05:04:12;;;;;;;6.30;3.50;;;;;;;1.23;52.12;101466.84;108243;1251;60329;-65
2024/02/19 05:06:40;;;;;;;6.10;3.90;;;;;;;1.23;52.26;101474.45;108233;1251;72636;-66
2024/02/19 05:09:08;;;;;;;6.70;3.60;;;;;;;1.16;52.47;101472.21;108268;1250;67916;-66
2024/02/19 05:11:36;;;;;;;8.30;4.20;;;;;;;1.11;52.44;101471.40;108263;1251;71057;-66
2024/02/19 05:14:03;;;;;;;6.00;4.10;;;;;;;1.18;52.33;101471.21;108269;1251;60921;-66
2024/02/19 05:16:31;;;;;;;7.10;4.00;;;;;;;1.15;52.54;101472.54;108269;1251;59129;-67
2024/02/19 05:19:00;;;;;;;8.30;4.50;;;;;;;1.10;52.56;101463.95;108351;1251;73823;-67
2024/02/19 05:21:28;;;;;;;6.70;4.00;;;;;;;1.10;52.49;101466.04;108268;1251;69005;-65
2024/02/19 05:23:55;;;;;;;11.00;3.90;;;;;;;1.18;52.18;101461.02;108276;1251;72637;-65
2024/02/19 05:26:26;;;;;;;7.30;3.80;;;;;;;1.11;52.40;101465.54;108319;1251;61659;-65
2024/02/19 05:28:55;;;;;;;8.10;4.20;;;;;;;1.07;52.48;101468.20;108275;1251;60769;-66
2024/02/19 05:31:35;;;;;;;6.10;4.00;;;;;;;1.12;52.60;101474.55;108171;1251;73828;-66
2024/02/19 05:34:04;;;;;;;5.90;3.30;;;;;;;1.39;52.20;101469.97;108176;1254;69022;-66
2024/02/19 05:36:31;;;;;;;9.20;4.00;;;;;;;1.60;51.92;101469.90;108173;1254;72741;-67
2024/02/19 05:38:59;;;;;;;7.10;4.50;;;;;;;1.63;51.69;101473.41;108134;1253;60570;-67
2024/02/19 05:41:27;;;;;;;8.70;4.00;;;;;;;1.76;51.74;101474.73;108162;1252;60383;-67
2024/02/19 05:43:54;;;;;;;8.10;4.10;;;;;;;1.81;51.68;101474.84;108151;1254;73852;-67
2024/02/19 05:46:22;;;;;;;7.90;4.40;;;;;;;1.81;51.83;101473.10;108105;1254;69402;-66
2024/02/19 05:48:50;;;;;;;9.50;4.70;;;;;;;1.80;51.78;101472.40;108111;1254;71392;-67
2024/02/19 05:51:18;;;;;;;15.80;5.30;;;;;;;1.73;51.91;101473.13;108204;1253;60383;-66
2024/02/19 05:53:48;;;;;;;8.90;4.30;;;;;;;2.03;51.58;101470.08;108133;1254;60398;-67
2024/02/19 05:56:15;;;;;;;9.60;4.90;;;;;;;1.65;52.51;101478.13;108154;1253;74250;-66
2024/02/19 05:58:43;;;;;;;13.80;5.40;;;;;;;1.51;53.25;101482.86;108120;1254;68514;-66
2024/02/19 06:01:11;;;;;;;8.20;5.00;;;;;;;1.54;53.50;101481.72;108172;1253;73148;-66
2024/02/19 06:03:39;;;;;;;16.90;5.20;;;;;;;1.69;53.36;101483.41;108131;1254;60523;-65
2024/02/19 06:06:06;;;;;;;12.60;6.00;;;;;;;2.02;53.55;101489.63;108119;1254;60347;-67
2024/02/19 06:08:34;;;;;;;14.40;6.10;;;;;;;2.71;55.63;101481.34;108250;1253;72904;-66
2024/02/19 06:11:03;;;;;;;14.30;7.00;;;;;;;3.70;56.73;101480.70;108081;1254;70282;-67
2024/02/19 06:13:30;;;;;;;8.80;4.90;;;;;;;4.79;56.52;101475.25;108184;1252;72653;-67
2024/02/19 06:15:58;;;;;;;15.60;5.00;;;;;;;5.90;55.93;101471.04;108149;1254;61679;-66
2024/02/19 06:18:25;;;;;;;14.30;5.40;;;;;;;6.93;54.96;101468.42;108070;1254;59630;-68
2024/02/19 06:20:53;;;;;;;10.20;5.30;;;;;;;7.98;53.47;101466.91;108167;1252;73815;-66
2024/02/19 06:23:20;;;;;;;9.60;4.60;;;;;;;8.80;51.70;101463.45;108040;1254;70452;-65
2024/02/19 06:25:48;;;;;;;10.00;4.70;;;;;;;9.64;49.06;101456.44;108038;1254;71364;-67
2024/02/19 06:28:15;;;;;;;13.20;5.50;;;;;;;10.49;47.33;101452.48;108020;1254;60890;-68
2024/02/19 06:30:43;;;;;;;13.80;5.50;;;;;;;11.22;45.07;101451.09;108139;1251;60171;-67
2024/02/19 06:33:10;;;;;;;21.60;7.40;;;;;;;11.70;41.73;101452.43;108112;1257;73818;-67
2024/02/19 06:35:39;;;;;;;17.10;8.20;;;;;;;11.72;37.74;101448.70;108214;1251;68842;-67
2024/02/19 06:38:07;;;;;;;17.10;7.80;;;;;;;11.57;38.38;101450.24;108209;1251;72677;-68
2024/02/19 06:40:34;;;;;;;20.60;10.20;;;;;;;11.46;37.67;101451.87;108173;1251;59761;-65
2024/02/19 06:43:02;;;;;;;21.80;10.60;;;;;;;11.39;37.58;101458.34;108224;1250;60384;-67
2024/02/19 06:45:29;;;;;;;20.90;10.00;;;;;;;11.35;36.46;101465.96;108262;1251;73168;-69
2024/02/19 06:47:57;;;;;;;20.90;10.30;;;;;;;11.45;35.35;101467.36;108233;1251;69913;-66
2024/02/19 06:50:24;;;;;;;24.40;11.40;;;;;;;11.54;35.64;101472.11;108196;1251;72437;-67
2024/02/19 06:52:52;;;;;;;19.10;9.20;;;;;;;11.64;35.03;101470.34;108253;1251;60299;-67
2024/02/19 06:55:19;;;;;;;20.40;9.70;;;;;;;11.87;34.29;101470.77;108211;1252;60434;-68
2024/02/19 06:57:47;;;;;;;24.90;10.70;;;;;;;11.99;34.42;101465.24;108257;1251;72602;-68
2024/02/19 07:00:14;;;;;;;28.50;10.70;;;;;;;12.10;33.11;101469.95;108274;1251;70891;-67
2024/02/19 07:02:42;;;;;;;33.20;11.60;;;;;;;11.95;31.43;101465.67;108228;1251;71398;-66
2024/02/19 07:05:10;;;;;;;22.60;9.80;;;;;;;11.97;31.94;101464.06;108283;1251;60287;-66
2024/02/19 07:07:38;;;;;;;23.40;10.70;;;;;;;12.12;31.99;101464.45;108274;1254;60104;-68
2024/02/19 07:10:06;;;;;;;26.40;12.30;;;;;;;12.41;31.50;101461.83;108388;1250;72503;-66
2024/02/19 07:12:33;;;;;;;23.90;11.10;;;;;;;12.49;29.90;101462.36;108309;1251;68832;-67
2024/02/19 07:15:01;;;;;;;32.10;13.50;;;;;;;12.66;30.87;101458.08;108197;1251;71324;-67
2024/02/19 07:17:28;;;;;;;130.50;71.60;;;;;;;13.13;30.49;101454.05;108344;1251;60417;-68
2024/02/19 07:19:56;;;;;;;35.30;18.00;;;;;;;13.37;28.76;101447.79;108360;1251;60453;-68
2024/02/19 07:22:24;;;;;;;24.80;10.70;;;;;;;13.55;28.77;101452.58;108339;1251;73813;-68
2024/02/19 07:24:52;;;;;;;19.20;8.80;;;;;;;13.79;27.58;101455.93;108280;1251;69187;-69
2024/02/19 07:27:31;;;;;;;24.20;11.70;;;;;;;14.50;28.35;101448.48;108204;1253;71414;-66
2024/02/19 07:29:59;;;;;;;72.50;26.00;;;;;;;14.82;28.15;101449.57;108277;1251;60465;-68
2024/02/19 07:32:26;;;;;;;59.40;20.20;;;;;;;15.19;27.11;101447.07;108232;1251;60340;-68
2024/02/19 07:34:53;;;;;;;31.00;13.80;;;;;;;15.58;27.02;101444.61;108223;1253;72720;-68
2024/02/19 07:37:21;;;;;;;19.90;10.30;;;;;;;15.90;25.98;101445.41;108119;1254;68851;-68
2024/02/19 07:39:49;;;;;;;25.70;12.00;;;;;;;16.09;26.40;101443.74;108174;1253;71482;-67
2024/02/19 07:42:16;;;;;;;25.00;11.80;;;;;;;16.23;25.14;101441.11;108109;1253;60513;-66
2024/02/19 07:44:44;;;;;;;20.80;10.80;;;;;;;16.45;25.08;101438.78;108080;1252;60428;-69
2024/02/19 07:47:11;;;;;;;23.90;8.60;;;;;;;16.99;23.79;101435.48;108061;1253;74153;-68
2024/02/19 07:49:42;;;;;;;22.00;8.80;;;;;;;16.94;23.46;101440.13;108120;1254;69490;-68
2024/02/19 07:52:12;;;;;;;29.80;9.30;;;;;;;16.99;23.78;101435.30;108056;1253;73031;-67
2024/02/19 07:54:40;;;;;;;18.50;8.30;;;;;;;17.30;23.57;101438.07;108069;1254;60523;-69
2024/02/19 07:57:07;;;;;;;19.50;10.50;;;;;;;17.70;23.44;101438.73;108103;1253;60277;-69
2024/02/19 07:59:36;;;;;;;21.90;9.70;;;;;;;17.93;23.16;101443.56;108137;1251;72581;-69
2024/02/19 08:02:03;;;;;;;18.70;8.50;;;;;;;17.96;21.79;101441.09;108102;1253;72342;-68
2024/02/19 08:04:31;;;;;;;14.00;7.20;;;;;;;17.63;20.92;101443.70;108142;1253;72467;-68
2024/02/19 08:07:00;;;;;;;22.10;10.10;;;;;;;17.50;21.18;101443.71;108181;1257;60434;-68
2024/02/19 08:09:28;;;;;;;22.30;10.00;;;;;;;17.58;21.69;101440.52;108163;1259;60368;-69
2024/02/19 08:11:57;;;;;;;19.10;9.00;;;;;;;17.80;21.51;101439.02;108117;1253;72851;-67
2024/02/19 08:14:26;;;;;;;19.20;8.40;;;;;;;18.13;21.53;101436.40;108107;1254;70197;-70
2024/02/19 08:16:53;;;;;;;18.10;8.20;;;;;;;18.46;20.66;101438.55;108113;1253;73025;-68
2024/02/19 08:19:21;;;;;;;16.20;7.80;;;;;;;18.28;20.45;101435.34;108240;1253;60543;-68
2024/02/19 08:21:49;;;;;;;21.60;8.50;;;;;;;18.01;20.63;101435.89;108197;1252;60303;-69
2024/02/19 08:24:17;;;;;;;14.10;7.40;;;;;;;18.08;20.38;101427.57;108111;1254;72600;-69
2024/02/19 08:26:44;;;;;;;15.90;8.50;;;;;;;18.21;20.97;101430.17;108120;1257;70558;-68
2024/02/19 08:29:12;;;;;;;17.70;7.90;;;;;;;18.52;20.84;101427.77;108069;1253;72690;-69
2024/02/19 08:31:40;;;;;;;26.10;8.20;;;;;;;19.10;20.22;101424.88;108017;1254;62282;-68
2024/02/19 08:34:07;;;;;;;10.20;5.30;;;;;;;19.51;19.34;101423.21;108124;1251;60341;-69
2024/02/19 08:36:37;;;;;;;10.80;5.30;;;;;;;19.71;19.43;101426.79;108160;1251;72057;-68
2024/02/19 08:39:04;;;;;;;10.50;3.90;;;;;;;19.99;18.68;101424.73;108230;1251;72490;-68
2024/02/19 08:41:32;;;;;;;9.70;3.90;;;;;;;19.54;16.75;101420.03;108157;1253;71212;-68
2024/02/19 08:43:59;;;;;;;7.70;3.80;;;;;;;18.09;17.92;101419.71;108209;1251;60649;-68
2024/02/19 08:46:27;;;;;;;11.80;5.20;;;;;;;17.77;19.04;101421.02;108224;1251;60540;-68
2024/02/19 08:48:56;;;;;;;9.00;4.50;;;;;;;17.88;19.32;101421.63;108223;1251;73990;-69
2024/02/19 08:51:23;;;;;;;8.40;3.20;;;;;;;17.87;18.49;101418.77;108183;1251;70490;-69
2024/02/19 08:53:51;;;;;;;7.50;3.80;;;;;;;17.74;17.51;101420.96;108199;1253;71209;-69
2024/02/19 08:56:26;;;;;;;6.80;2.80;;;;;;;17.57;17.93;101422.13;108241;1251;60309;-69
2024/02/19 08:58:53;;;;;;;5.00;2.50;;;;;;;17.74;18.15;101419.02;108246;1251;60393;-69
2024/02/19 09:01:21;;;;;;;3.50;2.30;;;;;;;18.00;17.62;101418.17;108208;1256;73861;-69
2024/02/19 09:03:48;;;;;;;8.50;2.90;;;;;;;17.97;16.67;101417.45;108210;1251;70476;-69
2024/02/19 09:06:16;;;;;;;5.90;2.80;;;;;;;18.05;16.93;101416.19;108203;1251;74821;-69
2024/02/19 09:08:44;;;;;;;11.10;4.90;;;;;;;18.19;16.96;101415.84;108187;1253;62009;-69
2024/02/19 09:11:12;;;;;;;5.30;2.60;;;;;;;18.48;16.77;101410.35;108330;1256;60534;-69
2024/02/19 09:13:39;;;;;;;14.30;4.50;;;;;;;18.95;16.69;101407.81;108238;1251;73782;-70
2024/02/19 09:16:10;;;;;;;12.00;4.80;;;;;;;18.91;15.42;101411.02;108200;1253;69196;-68
2024/02/19 09:18:38;;;;;;;14.00;4.20;;;;;;;18.33;16.25;101412.66;108231;1251;71925;-69
2024/02/19 09:21:05;;;;;;;4.90;2.50;;;;;;;17.80;16.27;101416.25;108072;1254;60315;-69
2024/02/19 09:23:34;;;;;;;4.60;2.80;;;;;;;17.29;17.07;101419.83;108276;1251;60350;-69
2024/02/19 09:26:02;;;;;;;2.80;1.50;;;;;;;17.05;17.05;101419.80;108237;1250;73818;-69
2024/02/19 09:28:29;;;;;;;10.10;3.20;;;;;;;16.72;17.08;101419.60;108199;1251;69157;-68
2024/02/19 09:30:57;;;;;;;6.50;2.70;;;;;;;16.42;18.36;101414.10;108279;1253;71000;-68
2024/02/19 09:33:24;;;;;;;4.40;2.60;;;;;;;15.71;18.64;101418.98;108116;1256;60624;-69
2024/02/19 09:35:52;;;;;;;5.00;2.80;;;;;;;15.43;18.75;101413.48;108139;1253;62146;-67
2024/02/19 09:38:21;;;;;;;5.10;2.80;;;;;;;15.46;18.88;101413.36;108019;1257;73847;-68
2024/02/19 09:40:49;;;;;;;5.90;2.00;;;;;;;15.67;18.64;101414.00;108091;1254;67849;-68
2024/02/19 09:43:17;;;;;;;5.00;2.40;;;;;;;15.97;18.57;101404.21;108070;1254;74901;-66
2024/02/19 09:45:45;;;;;;;3.60;1.80;;;;;;;16.37;17.88;101404.91;108068;1254;60335;-69
2024/02/19 09:48:14;;;;;;;4.50;2.00;;;;;;;16.56;17.54;101395.59;108128;1252;60935;-68
2024/02/19 09:50:43;;;;;;;3.00;1.30;;;;;;;16.50;16.95;101391.09;108090;1252;72829;-69
2024/02/19 09:53:11;;;;;;;11.90;4.60;;;;;;;16.72;16.94;101386.96;108128;1253;69528;-68
2024/02/19 09:55:39;;;;;;;5.50;2.90;;;;;;;16.76;17.65;101387.71;108051;1257;71723;-69
2024/02/19 09:58:06;;;;;;;3.80;2.20;;;;;;;16.81;17.69;101389.77;108129;1254;59665;-70
2024/02/19 10:00:34;;;;;;;6.80;2.90;;;;;;;16.47;17.63;101388.34;108051;1254;60342;-68
2024/02/19 10:03:02;;;;;;;7.00;2.20;;;;;;;15.94;17.93;101387.67;108149;1254;72704;-66
2024/02/19 10:05:29;;;;;;;4.70;1.90;;;;;;;15.89;17.99;101380.23;108187;1253;72685;-69
2024/02/19 10:08:03;;;;;;;3.90;2.10;;;;;;;16.79;18.43;101374.42;108150;1254;71339;-69
2024/02/19 10:10:32;;;;;;;5.40;2.40;;;;;;;17.65;16.34;101370.61;108156;1254;59135;-69
2024/02/19 10:13:00;;;;;;;5.80;2.10;;;;;;;17.12;16.33;101367.70;108157;1253;60454;-68
2024/02/19 10:15:28;;;;;;;6.40;2.40;;;;;;;17.27;16.93;101366.29;108278;1253;73742;-68
2024/02/19 10:17:56;;;;;;;6.20;2.10;;;;;;;17.71;16.75;101367.83;108177;1253;71483;-69
2024/02/19 10:20:23;;;;;;;4.10;1.70;;;;;;;17.50;16.97;101365.10;108125;1254;74941;-69
2024/02/19 10:22:51;;;;;;;1.90;1.20;;;;;;;17.64;17.05;101361.56;108206;1253;60402;-68
2024/02/19 10:25:18;;;;;;;3.80;1.50;;;;;;;17.74;16.33;101355.95;108146;1252;60401;-68
2024/02/19 10:27:46;;;;;;;6.20;1.30;;;;;;;17.82;16.20;101356.85;108162;1253;73959;-69
2024/02/19 10:30:14;;;;;;;3.30;1.60;;;;;;;17.92;16.20;101357.27;108156;1253;70859;-68
2024/02/19 10:32:42;;;;;;;6.90;1.50;;;;;;;17.83;15.47;101358.05;108134;1253;72283;-69
2024/02/19 10:35:09;;;;;;;13.10;5.70;;;;;;;17.32;15.59;101360.06;108236;1251;60598;-69
2024/02/19 10:37:37;;;;;;;3.50;1.60;;;;;;;16.66;16.03;101361.33;108192;1251;60399;-68
2024/02/19 10:40:08;;;;;;;3.70;1.30;;;;;;;16.59;16.76;101352.57;108338;1251;73939;-68
2024/02/19 10:42:36;;;;;;;3.30;1.70;;;;;;;16.60;16.93;101350.74;108153;1258;70444;-69
2024/02/19 10:45:04;;;;;;;1.00;0.80;;;;;;;16.79;16.55;101355.14;108372;1251;71504;-68
2024/02/19 10:47:31;;;;;;;4.70;1.30;;;;;;;16.90;16.60;101348.08;108227;1254;62060;-69
2024/02/19 10:49:59;;;;;;;5.20;1.50;;;;;;;17.23;16.97;101344.99;108179;1250;62266;-68
2024/02/19 10:52:29;;;;;;;6.00;1.30;;;;;;;17.69;16.39;101346.60;108262;1251;74120;-69
2024/02/19 10:54:56;;;;;;;3.90;1.10;;;;;;;17.89;16.75;101345.48;108245;1251;70233;-68
2024/02/19 10:57:52;;;;;;;2.30;1.20;;;;;;;17.86;16.34;101345.45;108263;1251;72432;-66
2024/02/19 11:00:27;;;;;;;3.40;1.20;;;;;;;18.15;16.45;101343.88;108227;1250;60348;-68
2024/02/19 11:03:05;;;;;;;1.40;0.90;;;;;;;17.95;16.35;101343.08;108300;1251;60331;-68
2024/02/19 11:05:41;;;;;;;2.50;1.50;;;;;;;17.58;16.63;101337.73;108298;1251;74831;-69
2024/02/19 11:08:21;;;;;;;3.90;1.00;;;;;;;17.27;16.48;101333.65;108255;1251;72783;-70
2024/02/19 11:10:52;;;;;;;5.70;1.30;;;;;;;17.21;17.00;101322.59;108285;1251;73955;-69
2024/02/19 11:13:21;;;;;;;13.70;1.50;;;;;;;17.85;16.69;101317.59;108354;1251;60411;-68
2024/02/19 11:15:50;;;;;;;2.30;1.40;;;;;;;18.27;16.38;101314.67;108240;1251;60498;-68
2024/02/19 11:18:18;;;;;;;1.70;1.00;;;;;;;18.18;16.47;101314.41;108258;1251;72967;-69
2024/02/19 11:20:46;;;;;;;2.40;1.20;;;;;;;17.77;16.57;101316.21;108350;1251;70634;-70
2024/02/19 11:23:18;;;;;;;1.90;1.20;;;;;;;17.30;17.28;101325.70;108193;1251;74873;-67
2024/02/19 11:25:46;;;;;;;2.70;1.60;;;;;;;17.30;17.08;101320.92;108267;1251;62427;-69